Aérodrome :
LOGIN :

S'inscrire | Disclaimer

   EN    FR    IT 

 










Légende :    VFR   VFR Marginal   IFR   IFR Intensif   IFR Très Intensif
Visi : 
Plafond : 
>= 8 km
>= 3000ft
5 à 8 km
1000 à 3000 ft
1500m à 5 km
500 à 1000 ft
800 à 1500m
200 à 500 ft
< 800m
< 200 ft
Symboles :   Orages  Brouillard  Fortes neiges  Fortes précipitations  Vent > 20 kt
SIGMETs :   Divers  Orages  Givrage  Turbulence  Onde Orograph.  Cendres Volcan.






- Altitude de l'aérodrome : 870 ft
- Code IATA : ETZ


LFJL - Metz Nancy Lorraine

DERNIER METAR :
  • 122100Z AUTO 03009KT CAVOK 26/17 Q1014 NOSIG

METARs EXPIRÉS :
  • 122030Z AUTO 04011KT 9999 ///TCU 27/18 Q1014 BECMG NSC
  • 122000Z AUTO 04008KT CAVOK 27/18 Q1013 TEMPO VRB15G25KT 4000 TSRA SCT060CB BKN080
  • 121930Z AUTO 35004KT 9999 VCTS ///CB 28/17 Q1014 TEMPO VRB15G25KT 4000 TSRA BECMG NSC
  • 121900Z AUTO 10010KT 9999 ///CB 28/16 Q1013 TEMPO VRB15G25KT 4000 TSRA
  • 121830Z AUTO 09010KT CAVOK 29/17 Q1013 TEMPO VRB15G25KT 4000 TSRA SCT060CB BKN080

TAF TAF LFJL
Valide du 12 à 18h jusqu'au 13 à 18h UTC


121700Z 1218/1318 VRB05KT CAVOK
PROB40
TEMPO 1218/1221 VRB15G25KT 4000 TSRA SCT060CB BKN080
BECMG 1305/1309 21008KT
PROB30
TEMPO 1304/1308 SHRA FEW060CB BKN080
TEMPO 1311/1318 FEW060CB
PROB40
TEMPO 1315/1318 24018G35KT 4000 TSRA SCT055CB BKN080



MET'MAP, la Météo Aéronautique d'un coup d'oeil ! - Copyright ORBIFLY Décembre 2007 - Disclaimer

ORBIFLY MET'MAP TEAM :

Programmation & Développement : Alexandra Zaïnal
Sur une idée originale de : Baudouin d'Aumeries
Assistance à la programmation : Marc-Olivier Méhu
Soutien technique & logistique : Manuel Goepfert

Contact : metmap@orbifly.com




SOURCES & CREDITS :

   NOAA